createdAt,value
2022-10-02T00:00:41.162Z,86.22
2022-10-02T00:01:59.097Z,86.33
2022-10-02T00:03:16.979Z,86.63
2022-10-02T00:04:33.701Z,86.74
2022-10-02T00:05:51.570Z,86.74
2022-10-02T00:07:07.969Z,86.83
2022-10-02T00:08:24.497Z,86.94
2022-10-02T00:09:42.301Z,86.94
2022-10-02T00:10:58.950Z,87.04
2022-10-02T00:12:16.815Z,87.24
2022-10-02T00:13:34.624Z,87.55
2022-10-02T00:14:52.460Z,87.75
2022-10-02T00:16:10.352Z,87.75
2022-10-02T00:17:30.192Z,87.96
2022-10-02T00:18:48.016Z,87.85
2022-10-02T00:20:05.839Z,87.85
2022-10-02T00:21:23.684Z,87.96
2022-10-02T00:22:40.064Z,88.16
2022-10-02T00:23:56.720Z,88.26
2022-10-02T00:25:14.554Z,88.26
2022-10-02T00:26:35.042Z,88.46
2022-10-02T00:27:53.016Z,88.67
2022-10-02T00:29:10.825Z,88.77
2022-10-02T00:30:27.496Z,88.87
2022-10-02T00:31:43.892Z,88.87
2022-10-02T00:33:00.256Z,88.98
2022-10-02T00:34:16.616Z,89.07
2022-10-02T00:35:33.015Z,89.18
2022-10-02T00:36:49.669Z,89.28
2022-10-02T00:38:06.049Z,89.59
2022-10-02T00:39:23.869Z,89.79
2022-10-02T00:40:40.259Z,89.79
2022-10-02T00:41:58.091Z,89.89
2022-10-02T00:43:14.748Z,89.99
2022-10-02T00:44:31.148Z,90.09
2022-10-02T00:45:47.590Z,90.09
2022-10-02T00:47:04.039Z,90.09
2022-10-02T00:48:20.411Z,90.20
2022-10-02T00:49:37.055Z,90.30
2022-10-02T00:50:54.889Z,90.30
2022-10-02T00:52:11.270Z,90.50
2022-10-02T00:53:29.092Z,90.60
2022-10-02T00:54:46.941Z,90.70
2022-10-02T00:56:05.078Z,91.01
2022-10-02T00:57:25.373Z,91.01
2022-10-02T00:58:41.746Z,91.01
2022-10-02T00:59:58.144Z,91.01
2022-10-02T01:01:14.558Z,91.22
2022-10-02T01:02:31.259Z,91.22
2022-10-02T01:03:49.161Z,91.31
2022-10-02T01:05:05.528Z,91.42
2022-10-02T01:06:21.908Z,91.42
2022-10-02T01:07:39.206Z,91.48
2022-10-02T01:08:57.333Z,91.62
2022-10-02T01:10:13.698Z,91.62
2022-10-02T01:11:30.076Z,91.72
2022-10-02T01:12:47.926Z,91.93
2022-10-02T01:14:05.757Z,91.93
2022-10-02T01:15:23.847Z,92.03
2022-10-02T01:16:40.291Z,92.23
2022-10-02T01:17:56.688Z,92.33
2022-10-02T01:19:14.520Z,92.44
2022-10-02T01:20:34.688Z,92.49
2022-10-02T01:21:51.342Z,92.54
2022-10-02T01:23:07.719Z,92.70
2022-10-02T01:24:24.100Z,92.80
2022-10-02T01:25:40.469Z,92.80
2022-10-02T01:26:56.851Z,92.80
2022-10-02T01:28:15.591Z,93.01
2022-10-02T01:29:31.963Z,92.80
2022-10-02T01:30:48.322Z,92.76
2022-10-02T01:32:06.164Z,92.76
2022-10-02T01:33:22.556Z,92.76
2022-10-02T01:34:39.195Z,92.65
2022-10-02T01:35:55.554Z,92.76
2022-10-02T01:37:13.391Z,92.65
2022-10-02T01:38:31.223Z,92.65
2022-10-02T01:39:47.614Z,92.65
2022-10-02T01:41:04.260Z,92.55
2022-10-02T01:42:20.636Z,92.55
2022-10-02T01:43:37.016Z,92.45
2022-10-02T01:44:54.844Z,92.41
2022-10-02T01:46:11.292Z,92.45
2022-10-02T01:47:28.018Z,92.55
2022-10-02T01:48:44.373Z,92.51
2022-10-02T01:50:02.192Z,92.51
2022-10-02T01:51:18.585Z,92.65
2022-10-02T01:52:36.447Z,92.51
2022-10-02T01:53:53.109Z,92.51
2022-10-02T01:55:10.948Z,92.51
2022-10-02T01:56:28.788Z,92.51
2022-10-02T01:57:45.170Z,92.51
2022-10-02T01:59:03.000Z,92.41
2022-10-02T02:00:19.655Z,92.55
2022-10-02T02:01:36.064Z,92.51
2022-10-02T02:02:53.889Z,92.51
2022-10-02T02:04:10.253Z,92.61
2022-10-02T02:05:28.090Z,92.61
2022-10-02T02:06:44.758Z,92.61
2022-10-02T02:08:01.122Z,92.61
2022-10-02T02:09:17.522Z,92.61
2022-10-02T02:10:33.901Z,92.61
2022-10-02T02:11:50.340Z,92.61
2022-10-02T02:13:06.983Z,92.61
2022-10-02T02:14:24.803Z,92.51
2022-10-02T02:15:41.183Z,92.51
2022-10-02T02:16:57.634Z,92.61
2022-10-02T02:18:14.015Z,92.51
2022-10-02T02:19:32.114Z,92.51
2022-10-02T02:20:48.488Z,92.51
2022-10-02T02:22:04.890Z,92.41
2022-10-02T02:23:23.211Z,92.41
2022-10-02T02:24:39.597Z,92.41
2022-10-02T02:25:56.224Z,92.51
2022-10-02T02:27:12.617Z,92.51
2022-10-02T02:28:30.520Z,92.51
2022-10-02T02:29:46.867Z,92.41
2022-10-02T02:31:04.717Z,92.41
2022-10-02T02:32:21.380Z,92.41
2022-10-02T02:33:39.218Z,92.41
2022-10-02T02:34:55.569Z,92.51
2022-10-02T02:36:13.512Z,92.51
2022-10-02T02:37:29.869Z,92.71
2022-10-02T02:38:46.547Z,92.71
2022-10-02T02:40:04.361Z,92.61
2022-10-02T02:41:20.771Z,92.61
2022-10-02T02:42:37.130Z,92.51
2022-10-02T02:43:53.512Z,92.51
2022-10-02T02:45:10.161Z,92.51
2022-10-02T02:46:26.560Z,92.51
2022-10-02T02:47:42.929Z,92.41
2022-10-02T02:49:00.752Z,92.30
2022-10-02T02:50:17.114Z,92.21
2022-10-02T02:51:33.793Z,92.21
2022-10-02T02:52:50.157Z,92.10
2022-10-02T02:54:07.984Z,92.00
2022-10-02T02:55:24.348Z,91.80
2022-10-02T02:56:42.214Z,91.75
2022-10-02T02:57:58.859Z,91.75
2022-10-02T02:59:15.231Z,91.65
2022-10-02T03:00:31.621Z,91.65
2022-10-02T03:01:48.033Z,91.65
2022-10-02T03:03:04.368Z,91.69
2022-10-02T03:04:21.054Z,91.75
2022-10-02T03:05:37.427Z,91.75
2022-10-02T03:06:53.809Z,91.65
2022-10-02T03:08:11.632Z,91.75
2022-10-02T03:09:27.999Z,91.80
2022-10-02T03:10:46.138Z,91.86
2022-10-02T03:12:02.520Z,92.00
2022-10-02T03:13:18.871Z,92.10
2022-10-02T03:14:36.709Z,92.06
2022-10-02T03:15:53.162Z,92.21
2022-10-02T03:17:09.821Z,92.30
2022-10-02T03:18:26.194Z,92.41
2022-10-02T03:19:42.571Z,92.41
2022-10-02T03:20:58.976Z,92.36
2022-10-02T03:22:16.814Z,92.36
2022-10-02T03:23:33.451Z,92.36
2022-10-02T03:24:51.284Z,92.36
2022-10-02T03:26:07.673Z,92.26
2022-10-02T03:27:24.060Z,92.16
2022-10-02T03:28:56.767Z,92.16
2022-10-02T03:30:01.636Z,92.26
2022-10-02T03:31:18.115Z,92.26
2022-10-02T03:32:34.459Z,92.26
2022-10-02T03:33:52.293Z,92.16
2022-10-02T03:35:08.663Z,92.16
2022-10-02T03:36:26.826Z,92.16
2022-10-02T03:37:44.717Z,92.16
2022-10-02T03:39:23.578Z,92.06
2022-10-02T03:40:24.314Z,92.06
2022-10-02T03:41:42.175Z,91.91
2022-10-02T03:42:58.823Z,91.86
2022-10-02T03:44:15.199Z,91.91
2022-10-02T03:45:51.389Z,91.82
2022-10-02T03:46:52.880Z,91.82
2022-10-02T03:48:09.249Z,91.82
2022-10-02T03:49:25.945Z,91.71
2022-10-02T03:50:42.320Z,91.71
2022-10-02T03:51:58.716Z,91.61
2022-10-02T03:53:16.533Z,91.61
2022-10-02T03:54:32.902Z,91.51
2022-10-02T03:55:49.551Z,91.41
2022-10-02T03:57:05.953Z,91.20
2022-10-02T03:58:22.302Z,91.10
2022-10-02T03:59:40.143Z,91.10
2022-10-02T04:00:57.965Z,91.10
2022-10-02T04:02:16.114Z,91.06
2022-10-02T04:03:32.535Z,91.10
2022-10-02T04:04:48.891Z,91.10
2022-10-02T04:06:06.725Z,90.96
2022-10-02T04:07:23.138Z,91.00
2022-10-02T04:08:39.774Z,90.86
2022-10-02T04:09:56.166Z,90.86
2022-10-02T04:11:13.977Z,90.86
2022-10-02T04:12:32.327Z,90.96
2022-10-02T04:13:48.687Z,91.00
2022-10-02T04:15:05.349Z,91.10
2022-10-02T04:16:21.757Z,91.20
2022-10-02T04:17:39.626Z,91.20
2022-10-02T04:18:55.982Z,91.20
2022-10-02T04:20:14.119Z,91.20
2022-10-02T04:21:30.756Z,91.20
2022-10-02T04:22:47.150Z,91.20
2022-10-02T04:24:04.971Z,91.20
2022-10-02T04:25:21.409Z,91.30
2022-10-02T04:26:38.018Z,91.41
2022-10-02T04:27:54.848Z,91.51
2022-10-02T04:29:12.640Z,91.51
2022-10-02T04:30:30.525Z,91.61
2022-10-02T04:31:48.433Z,91.61
2022-10-02T04:33:06.266Z,91.61
2022-10-02T04:34:22.924Z,91.61
2022-10-02T04:35:39.462Z,91.61
2022-10-02T04:36:57.282Z,91.61
2022-10-02T04:38:15.119Z,91.51
2022-10-02T04:39:32.957Z,91.41
2022-10-02T04:40:49.698Z,91.30
2022-10-02T04:42:06.066Z,91.30
2022-10-02T04:43:23.896Z,91.30
2022-10-02T04:44:40.260Z,91.30
2022-10-02T04:45:58.258Z,91.26
2022-10-02T04:47:14.998Z,91.26
2022-10-02T04:48:32.823Z,91.26
2022-10-02T04:49:49.207Z,91.41
2022-10-02T04:51:07.076Z,91.47
2022-10-02T04:52:23.428Z,91.36
2022-10-02T04:53:40.080Z,91.36
2022-10-02T04:54:57.927Z,91.36
2022-10-02T04:56:15.768Z,91.36
2022-10-02T04:57:32.129Z,91.26
2022-10-02T04:58:52.417Z,91.30
2022-10-02T05:00:10.551Z,91.26
2022-10-02T05:01:28.382Z,91.16
2022-10-02T05:02:46.190Z,91.16
2022-10-02T05:04:04.277Z,91.06
2022-10-02T05:05:21.071Z,91.06
2022-10-02T05:06:39.112Z,90.96
2022-10-02T05:07:57.032Z,91.06
2022-10-02T05:09:14.907Z,91.06
2022-10-02T05:10:32.714Z,91.06
2022-10-02T05:11:49.374Z,91.06
2022-10-02T05:13:05.765Z,91.06
2022-10-02T05:14:23.595Z,91.16
2022-10-02T05:15:41.408Z,91.41
2022-10-02T05:16:57.784Z,91.36
2022-10-02T05:18:17.867Z,91.36
2022-10-02T05:19:34.510Z,91.47
2022-10-02T05:20:50.858Z,91.47
2022-10-02T05:22:07.243Z,91.36
2022-10-02T05:23:23.650Z,91.36
2022-10-02T05:24:40.309Z,91.36
2022-10-02T05:25:56.767Z,91.36
2022-10-02T05:27:14.609Z,91.36
2022-10-02T05:28:31.017Z,91.47
2022-10-02T05:29:48.841Z,91.47
2022-10-02T05:31:07.031Z,91.36
2022-10-02T05:32:24.850Z,91.36
2022-10-02T05:33:45.985Z,91.41
2022-10-02T05:35:03.897Z,91.20
2022-10-02T05:36:20.299Z,91.06
2022-10-02T05:37:36.958Z,90.96
2022-10-02T05:38:54.810Z,90.75
2022-10-02T05:40:11.182Z,90.55
2022-10-02T05:41:29.001Z,90.45
2022-10-02T05:42:46.888Z,90.25
2022-10-02T05:44:04.981Z,90.14
2022-10-02T05:45:21.370Z,89.94
2022-10-02T05:46:39.599Z,89.94
2022-10-02T05:47:56.310Z,89.84
2022-10-02T05:49:12.674Z,89.74
2022-10-02T05:50:30.784Z,89.64
2022-10-02T05:51:47.145Z,89.74
2022-10-02T05:53:04.986Z,89.74
2022-10-02T05:54:21.371Z,89.74
2022-10-02T05:55:39.212Z,89.43
2022-10-02T05:56:57.316Z,89.23
2022-10-02T05:58:15.177Z,89.13
2022-10-02T05:59:31.545Z,88.93
2022-10-02T06:00:49.417Z,88.93
2022-10-02T06:02:05.808Z,88.73
2022-10-02T06:03:23.975Z,88.62
2022-10-02T06:04:41.790Z,88.62
2022-10-02T06:05:58.168Z,88.62
2022-10-02T06:07:16.009Z,88.52
2022-10-02T06:08:32.409Z,88.62
2022-10-02T06:09:50.028Z,88.73
2022-10-02T06:11:07.811Z,88.73
2022-10-02T06:12:25.641Z,88.73
2022-10-02T06:13:43.576Z,88.62
2022-10-02T06:15:01.398Z,88.42
2022-10-02T06:16:18.094Z,88.42
2022-10-02T06:17:34.453Z,88.42
2022-10-02T06:18:52.323Z,88.32
2022-10-02T06:20:10.142Z,88.32
2022-10-02T06:21:27.982Z,88.42
2022-10-02T06:22:44.654Z,88.21
2022-10-02T06:24:02.483Z,88.01
2022-10-02T06:25:20.313Z,88.01
2022-10-02T06:26:38.605Z,87.92
2022-10-02T06:27:56.822Z,87.92
2022-10-02T06:29:18.771Z,87.92
2022-10-02T06:30:36.126Z,87.81
2022-10-02T06:31:54.023Z,87.61
2022-10-02T06:33:10.455Z,87.51
2022-10-02T06:34:26.879Z,87.40
2022-10-02T06:35:43.245Z,87.51
2022-10-02T06:37:01.077Z,87.30
2022-10-02T06:38:17.476Z,87.30
2022-10-02T06:39:35.317Z,87.40
2022-10-02T06:40:51.967Z,87.20
2022-10-02T06:42:09.799Z,87.51
2022-10-02T06:43:27.662Z,87.51
2022-10-02T06:44:45.507Z,87.61
2022-10-02T06:46:01.961Z,87.61
2022-10-02T06:47:20.068Z,87.81
2022-10-02T06:48:36.461Z,87.81
2022-10-02T06:49:54.294Z,87.71
2022-10-02T06:51:12.101Z,87.81
2022-10-02T06:52:32.233Z,87.81
2022-10-02T06:53:51.212Z,87.92
2022-10-02T06:55:09.073Z,88.12
2022-10-02T06:56:26.886Z,88.01
2022-10-02T06:57:43.287Z,87.57
2022-10-02T06:59:01.443Z,87.77
2022-10-02T07:00:19.280Z,87.67
2022-10-02T07:01:37.105Z,87.77
2022-10-02T07:02:53.557Z,87.67
2022-10-02T07:04:11.394Z,87.77
2022-10-02T07:05:28.048Z,87.67
2022-10-02T07:06:45.868Z,87.57
2022-10-02T07:08:03.956Z,87.57
2022-10-02T07:09:21.780Z,87.46
2022-10-02T07:10:39.614Z,87.57
2022-10-02T07:11:56.265Z,87.77
2022-10-02T07:13:12.666Z,87.46
2022-10-02T07:14:30.486Z,87.63
2022-10-02T07:15:48.299Z,88.18
2022-10-02T07:17:06.119Z,88.64
2022-10-02T07:18:24.251Z,89.09
2022-10-02T07:19:42.071Z,89.39
2022-10-02T07:20:59.909Z,89.70
2022-10-02T07:22:42.761Z,89.90
2022-10-02T07:23:40.443Z,90.00
2022-10-02T07:24:58.572Z,90.11
2022-10-02T07:26:16.410Z,90.00
2022-10-02T07:27:34.224Z,90.00
2022-10-02T07:28:50.604Z,89.76
2022-10-02T07:30:08.454Z,89.80
2022-10-02T07:31:25.149Z,89.86
2022-10-02T07:32:41.515Z,89.86
2022-10-02T07:33:59.359Z,89.59
2022-10-02T07:35:17.245Z,89.76
2022-10-02T07:36:35.362Z,89.76
2022-10-02T07:37:52.227Z,90.06
2022-10-02T07:39:10.059Z,90.16
2022-10-02T07:40:27.897Z,89.96
2022-10-02T07:41:45.750Z,89.96
2022-10-02T07:43:03.567Z,89.65
2022-10-02T07:44:20.231Z,89.76
2022-10-02T07:45:38.120Z,89.86
2022-10-02T07:46:55.929Z,89.76
2022-10-02T07:48:13.780Z,89.86
2022-10-02T07:49:31.629Z,89.96
2022-10-02T07:50:49.780Z,89.96
2022-10-02T07:52:07.612Z,90.06
2022-10-02T07:53:25.511Z,89.76
2022-10-02T07:54:43.362Z,89.51
2022-10-02T07:56:01.214Z,89.72
2022-10-02T07:57:20.059Z,89.72
2022-10-02T07:58:37.903Z,89.41
2022-10-02T07:59:55.751Z,89.51
2022-10-02T08:01:13.643Z,89.61
2022-10-02T08:02:31.533Z,89.61
2022-10-02T08:03:48.213Z,89.41
2022-10-02T08:05:06.035Z,89.21
2022-10-02T08:06:23.895Z,89.51
2022-10-02T08:07:41.717Z,89.41
2022-10-02T08:08:59.551Z,89.21
2022-10-02T08:10:17.655Z,89.21
2022-10-02T08:11:35.495Z,88.90
2022-10-02T08:12:53.319Z,89.01
2022-10-02T08:14:11.157Z,89.31
2022-10-02T08:15:29.009Z,89.11
2022-10-02T08:16:45.718Z,89.01
2022-10-02T08:18:22.780Z,89.51
2022-10-02T08:19:24.729Z,89.41
2022-10-02T08:20:41.151Z,89.41
2022-10-02T08:21:57.528Z,89.51
2022-10-02T08:23:14.172Z,89.51
2022-10-02T08:24:32.010Z,89.17
2022-10-02T08:25:48.427Z,88.86
2022-10-02T08:27:06.296Z,88.11
2022-10-02T08:28:24.225Z,87.56
2022-10-02T08:29:40.885Z,87.32
2022-10-02T08:30:59.062Z,86.47
2022-10-02T08:32:16.950Z,85.11
2022-10-02T08:33:34.778Z,83.50
2022-10-02T08:34:52.634Z,83.15
2022-10-02T08:36:09.293Z,83.36
2022-10-02T08:37:27.664Z,83.76
2022-10-02T08:38:45.484Z,83.15
2022-10-02T08:40:01.937Z,82.45
2022-10-02T08:41:19.768Z,82.55
2022-10-02T08:42:36.466Z,82.04
2022-10-02T08:43:54.290Z,81.54
2022-10-02T08:45:23.040Z,82.04
2022-10-02T08:46:43.320Z,82.45
2022-10-02T08:48:01.168Z,82.95
2022-10-02T08:49:19.240Z,82.95
2022-10-02T08:50:37.108Z,82.85
2022-10-02T08:51:53.496Z,82.35
2022-10-02T08:53:11.347Z,81.84
2022-10-02T08:54:29.178Z,81.94
2022-10-02T08:55:47.340Z,81.94
2022-10-02T08:57:05.166Z,82.14
2022-10-02T08:58:23.009Z,82.14
2022-10-02T08:59:40.876Z,81.44
2022-10-02T09:00:58.831Z,81.34
2022-10-02T09:02:15.567Z,81.13
2022-10-02T09:03:33.371Z,81.54
2022-10-02T09:04:51.242Z,81.64
2022-10-02T09:06:09.134Z,81.54
2022-10-02T09:07:28.305Z,81.13
2022-10-02T09:08:46.475Z,81.03
2022-10-02T09:10:04.305Z,81.34
2022-10-02T09:11:22.177Z,81.23
2022-10-02T09:12:40.045Z,81.74
2022-10-02T09:13:57.879Z,81.44
2022-10-02T09:15:16.001Z,81.50
2022-10-02T09:16:34.349Z,80.69
2022-10-02T09:17:52.447Z,81.10
2022-10-02T09:19:10.286Z,81.26
2022-10-02T09:20:28.118Z,80.25
2022-10-02T09:21:46.239Z,80.45
2022-10-02T09:23:04.093Z,80.05
2022-10-02T09:24:21.928Z,79.54
2022-10-02T09:25:39.749Z,79.04
2022-10-02T09:26:57.598Z,79.79
2022-10-02T09:28:15.783Z,79.58
2022-10-02T09:29:33.639Z,79.48
2022-10-02T09:30:50.007Z,79.79
2022-10-02T09:32:07.880Z,80.39
2022-10-02T09:33:25.692Z,81.10
2022-10-02T09:34:42.353Z,80.19
2022-10-02T09:36:00.179Z,79.99
2022-10-02T09:37:18.059Z,80.59
2022-10-02T09:38:39.102Z,81.30
2022-10-02T09:39:57.616Z,80.90
2022-10-02T09:41:14.262Z,80.99
2022-10-02T09:42:32.111Z,80.59
2022-10-02T09:43:48.495Z,79.68
2022-10-02T09:45:06.326Z,80.29
2022-10-02T09:46:24.147Z,80.29
2022-10-02T09:47:40.814Z,79.64
2022-10-02T09:48:58.756Z,79.85
2022-10-02T09:50:16.598Z,79.64
2022-10-02T09:51:34.429Z,79.54
2022-10-02T09:52:50.824Z,79.34
2022-10-02T09:54:09.209Z,78.94
2022-10-02T09:55:25.608Z,78.84
2022-10-02T09:56:43.451Z,79.24
2022-10-02T09:57:59.893Z,79.68
2022-10-02T09:59:17.702Z,79.48
2022-10-02T10:00:34.376Z,79.28
2022-10-02T10:01:50.844Z,79.48
2022-10-02T10:03:08.671Z,79.99
2022-10-02T10:04:33.795Z,80.29
2022-10-02T10:05:49.201Z,80.39
2022-10-02T10:07:07.344Z,80.19
2022-10-02T10:08:23.742Z,80.08
2022-10-02T10:09:40.114Z,80.29
2022-10-02T10:10:57.963Z,79.88
2022-10-02T10:12:15.806Z,80.08
2022-10-02T10:13:33.926Z,80.08
2022-10-02T10:14:50.316Z,80.12
2022-10-02T10:16:08.244Z,80.49
2022-10-02T10:17:26.206Z,80.19
2022-10-02T10:18:44.047Z,79.62
2022-10-02T10:20:00.697Z,79.92
2022-10-02T10:21:18.538Z,80.29
2022-10-02T10:22:36.397Z,79.88
2022-10-02T10:23:54.237Z,79.58
2022-10-02T10:25:12.061Z,80.19
2022-10-02T10:26:28.730Z,79.72
2022-10-02T10:27:46.600Z,78.97
2022-10-02T10:29:04.411Z,78.71
2022-10-02T10:30:22.239Z,79.28
2022-10-02T10:31:40.598Z,79.08
2022-10-02T10:32:59.024Z,79.08
2022-10-02T10:34:16.872Z,79.28
2022-10-02T10:35:34.685Z,79.64
2022-10-02T10:36:52.531Z,79.04
2022-10-02T10:38:10.373Z,78.63
2022-10-02T10:39:28.515Z,77.32
2022-10-02T10:40:46.344Z,77.39
2022-10-02T10:42:04.209Z,74.66
2022-10-02T10:43:23.698Z,73.28
2022-10-02T10:44:41.545Z,73.89
2022-10-02T10:45:59.437Z,73.65
2022-10-02T10:47:17.327Z,74.16
2022-10-02T10:48:35.149Z,73.35
2022-10-02T10:49:53.007Z,72.64
2022-10-02T10:51:11.150Z,72.85
2022-10-02T10:52:28.988Z,72.00
2022-10-02T10:53:46.810Z,71.06
2022-10-02T10:55:04.680Z,72.04
2022-10-02T10:56:22.550Z,69.89
2022-10-02T10:57:39.219Z,67.64
2022-10-02T10:58:57.047Z,66.94
2022-10-02T11:00:14.903Z,67.81
2022-10-02T11:01:33.808Z,66.74
2022-10-02T11:02:51.686Z,65.00
2022-10-02T11:04:09.806Z,65.74
2022-10-02T11:05:27.690Z,64.43
2022-10-02T11:06:46.064Z,63.64
2022-10-02T11:08:04.036Z,63.43
2022-10-02T11:09:22.028Z,63.20
2022-10-02T11:10:38.700Z,62.60
2022-10-02T11:11:56.548Z,61.77
2022-10-02T11:13:14.415Z,62.27
2022-10-02T11:14:32.259Z,62.60
2022-10-02T11:15:53.879Z,62.73
2022-10-02T11:17:11.724Z,62.36
2022-10-02T11:18:29.559Z,62.89
2022-10-02T11:19:47.435Z,63.09
2022-10-02T11:21:05.296Z,62.59
2022-10-02T11:22:23.122Z,62.82
2022-10-02T11:23:41.452Z,62.52
2022-10-02T11:24:59.323Z,62.89
2022-10-02T11:26:18.201Z,62.56
2022-10-02T11:27:34.862Z,60.82
2022-10-02T11:28:52.708Z,60.62
2022-10-02T11:30:10.631Z,61.05
2022-10-02T11:31:28.479Z,61.96
2022-10-02T11:32:46.287Z,61.46
2022-10-02T11:34:04.134Z,60.69
2022-10-02T11:35:21.977Z,60.14
2022-10-02T11:36:39.816Z,58.68
2022-10-02T11:38:00.616Z,58.15
2022-10-02T11:39:23.720Z,56.72
2022-10-02T11:40:41.589Z,55.09
2022-10-02T11:41:59.466Z,54.42
2022-10-02T11:43:17.300Z,53.64
2022-10-02T11:44:35.130Z,54.87
2022-10-02T11:45:53.038Z,55.40
2022-10-02T11:47:10.841Z,55.70
2022-10-02T11:48:28.704Z,54.00
2022-10-02T11:49:46.823Z,54.10
2022-10-02T11:51:04.655Z,53.97
2022-10-02T11:52:22.505Z,52.97
2022-10-02T11:53:40.364Z,53.34
2022-10-02T11:54:58.219Z,53.02
2022-10-02T11:56:16.326Z,51.82
2022-10-02T11:57:33.648Z,52.32
2022-10-02T11:58:51.516Z,53.24
2022-10-02T12:00:07.909Z,52.52
2022-10-02T12:01:25.760Z,53.14
2022-10-02T12:02:42.482Z,52.94
2022-10-02T12:04:00.561Z,52.34
2022-10-02T12:05:18.411Z,51.87
2022-10-02T12:06:36.231Z,52.27
2022-10-02T12:07:54.589Z,52.77
2022-10-02T12:09:12.694Z,53.09
2022-10-02T12:10:30.553Z,53.30
2022-10-02T12:11:48.383Z,53.82
2022-10-02T12:13:06.230Z,55.58
2022-10-02T12:14:24.087Z,55.91
2022-10-02T12:15:41.925Z,56.63
2022-10-02T12:16:59.799Z,56.86
2022-10-02T12:18:21.674Z,57.17
2022-10-02T12:19:39.862Z,57.17
2022-10-02T12:20:56.528Z,57.57
2022-10-02T12:22:14.372Z,57.59
2022-10-02T12:23:32.207Z,57.79
2022-10-02T12:24:54.096Z,58.00
2022-10-02T12:26:12.714Z,58.33
2022-10-02T12:27:30.531Z,58.33
2022-10-02T12:28:48.383Z,58.95
2022-10-02T12:30:06.232Z,59.36
2022-10-02T12:31:24.163Z,59.56
2022-10-02T12:32:40.804Z,60.36
2022-10-02T12:33:58.623Z,60.16
2022-10-02T12:35:16.494Z,60.87
2022-10-02T12:36:34.323Z,60.27
2022-10-02T12:37:52.173Z,59.94
2022-10-02T12:39:10.093Z,60.77
2022-10-02T12:40:27.914Z,60.87
2022-10-02T12:41:44.288Z,60.74
2022-10-02T12:43:02.135Z,60.33
2022-10-02T12:44:20.506Z,60.13
2022-10-02T12:45:38.391Z,59.80
2022-10-02T12:46:56.209Z,59.88
2022-10-02T12:48:14.615Z,58.81
2022-10-02T12:49:32.721Z,58.31
2022-10-02T12:50:50.560Z,57.89
2022-10-02T12:52:08.429Z,58.18
2022-10-02T12:53:26.270Z,57.98
2022-10-02T12:54:44.101Z,57.26
2022-10-02T12:56:00.775Z,57.03
2022-10-02T12:57:18.591Z,56.52
2022-10-02T12:58:36.472Z,56.93
2022-10-02T12:59:56.931Z,56.93
2022-10-02T13:01:13.366Z,56.45
2022-10-02T13:02:56.071Z,55.95
2022-10-02T13:03:53.893Z,56.65
2022-10-02T13:05:11.727Z,56.96
2022-10-02T13:06:29.955Z,56.26
2022-10-02T13:07:48.275Z,57.08
2022-10-02T13:09:06.150Z,56.28
2022-10-02T13:10:23.959Z,56.88
2022-10-02T13:11:41.837Z,56.88
2022-10-02T13:12:59.675Z,56.48
2022-10-02T13:14:17.517Z,56.96
2022-10-02T13:15:36.239Z,56.65
2022-10-02T13:16:54.238Z,56.35
2022-10-02T13:18:12.064Z,55.65
2022-10-02T13:19:29.914Z,54.95
2022-10-02T13:20:47.734Z,54.45
2022-10-02T13:22:05.604Z,54.65
2022-10-02T13:23:23.695Z,54.82
2022-10-02T13:24:42.051Z,54.32
2022-10-02T13:25:59.858Z,53.82
2022-10-02T13:27:17.744Z,54.75
2022-10-02T13:28:35.557Z,54.12
2022-10-02T13:29:53.406Z,54.70
2022-10-02T13:31:11.325Z,53.89
2022-10-02T13:32:29.219Z,53.59
2022-10-02T13:33:47.544Z,53.52
2022-10-02T13:35:05.656Z,54.15
2022-10-02T13:36:23.470Z,54.65
2022-10-02T13:37:41.332Z,55.85
2022-10-02T13:38:59.171Z,54.65
2022-10-02T13:40:17.871Z,55.28
2022-10-02T13:41:36.246Z,55.28
2022-10-02T13:42:54.236Z,55.38
2022-10-02T13:44:12.066Z,55.91
2022-10-02T13:45:29.927Z,56.01
2022-10-02T13:46:47.735Z,56.51
2022-10-02T13:48:04.427Z,56.41
2022-10-02T13:49:22.265Z,56.93
2022-10-02T13:50:38.646Z,57.34
2022-10-02T13:51:56.466Z,57.37
2022-10-02T13:53:14.357Z,57.97
2022-10-02T13:54:32.458Z,58.27
2022-10-02T13:55:50.336Z,58.50
2022-10-02T13:57:08.159Z,58.80
2022-10-02T13:58:26.001Z,59.23
2022-10-02T13:59:42.388Z,59.13
2022-10-02T14:01:00.785Z,59.43
2022-10-02T14:02:18.612Z,59.83
2022-10-02T14:03:36.503Z,60.44
2022-10-02T14:04:54.318Z,60.33
2022-10-02T14:06:12.164Z,60.24
2022-10-02T14:07:28.563Z,59.63
2022-10-02T14:08:46.422Z,59.36
2022-10-02T14:10:04.520Z,58.65
2022-10-02T14:11:23.400Z,58.86
2022-10-02T14:12:41.234Z,59.59
2022-10-02T14:14:02.495Z,59.69
2022-10-02T14:15:21.296Z,59.92
2022-10-02T14:16:39.698Z,60.02
2022-10-02T14:17:56.466Z,60.42
2022-10-02T14:19:14.364Z,60.52
2022-10-02T14:20:30.726Z,60.45
2022-10-02T14:21:48.558Z,60.45
2022-10-02T14:23:06.409Z,60.75
2022-10-02T14:24:24.528Z,61.16
2022-10-02T14:25:42.356Z,61.56
2022-10-02T14:27:00.188Z,61.66
2022-10-02T14:28:16.609Z,61.79
2022-10-02T14:29:34.493Z,62.09
2022-10-02T14:30:51.140Z,62.60
2022-10-02T14:32:09.508Z,62.90
2022-10-02T14:33:27.404Z,63.10
2022-10-02T14:34:45.710Z,63.43
2022-10-02T14:36:03.540Z,63.64
2022-10-02T14:37:21.703Z,63.73
2022-10-02T14:38:39.525Z,64.14
2022-10-02T14:39:56.014Z,64.44
2022-10-02T14:41:13.876Z,64.44
2022-10-02T14:42:31.737Z,64.54
2022-10-02T14:43:49.849Z,65.15
2022-10-02T14:45:07.695Z,65.35
2022-10-02T14:46:24.069Z,65.95
2022-10-02T14:47:41.949Z,65.85
2022-10-02T14:48:59.770Z,65.85
2022-10-02T14:50:17.960Z,66.05
2022-10-02T14:51:34.511Z,66.29
2022-10-02T14:52:52.532Z,66.69
2022-10-02T14:54:10.391Z,67.10
2022-10-02T14:55:28.248Z,67.50
2022-10-02T14:56:44.892Z,67.60
2022-10-02T14:58:02.757Z,67.80
2022-10-02T14:59:20.595Z,67.80
2022-10-02T15:00:38.444Z,68.10
2022-10-02T15:01:54.829Z,67.53
2022-10-02T15:03:12.943Z,67.33
2022-10-02T15:04:30.849Z,68.04
2022-10-02T15:05:48.697Z,67.93
2022-10-02T15:07:06.506Z,67.83
2022-10-02T15:08:24.386Z,68.24
2022-10-02T15:09:42.206Z,68.04
2022-10-02T15:11:00.078Z,67.83
2022-10-02T15:12:17.878Z,67.02
2022-10-02T15:13:35.759Z,66.42
2022-10-02T15:14:53.888Z,65.51
2022-10-02T15:16:11.768Z,64.30
2022-10-02T15:17:29.692Z,64.20
2022-10-02T15:18:47.569Z,64.10
2022-10-02T15:20:05.392Z,63.70
2022-10-02T15:21:23.241Z,63.59
2022-10-02T15:22:47.035Z,63.76
2022-10-02T15:24:04.904Z,63.56
2022-10-02T15:25:22.749Z,63.36
2022-10-02T15:26:40.854Z,62.15
2022-10-02T15:28:12.097Z,61.75
2022-10-02T15:29:21.404Z,62.35
2022-10-02T15:30:39.227Z,62.45
2022-10-02T15:31:55.777Z,61.55
2022-10-02T15:33:12.406Z,60.33
2022-10-02T15:34:30.750Z,60.94
2022-10-02T15:35:48.591Z,61.35
2022-10-02T15:37:06.807Z,61.65
2022-10-02T15:38:24.652Z,62.08
2022-10-02T15:39:42.463Z,62.38
2022-10-02T15:41:00.281Z,62.99
2022-10-02T15:42:18.157Z,62.99
2022-10-02T15:43:35.980Z,62.99
2022-10-02T15:44:54.103Z,62.18
2022-10-02T15:46:11.978Z,62.68
2022-10-02T15:47:29.799Z,63.02
2022-10-02T15:48:51.551Z,62.92
2022-10-02T15:50:10.233Z,62.82
2022-10-02T15:51:26.864Z,62.92
2022-10-02T15:52:43.351Z,63.22
2022-10-02T15:54:01.178Z,63.22
2022-10-02T15:55:20.015Z,63.22
2022-10-02T15:56:38.209Z,63.42
2022-10-02T15:57:56.170Z,63.32
2022-10-02T15:59:13.986Z,63.52
2022-10-02T16:00:31.890Z,63.62
2022-10-02T16:01:49.446Z,64.03
2022-10-02T16:03:07.681Z,64.13
2022-10-02T16:04:25.509Z,63.52
2022-10-02T16:05:43.350Z,63.93
2022-10-02T16:07:01.168Z,63.93
2022-10-02T16:08:19.114Z,64.13
2022-10-02T16:09:37.250Z,63.82
2022-10-02T16:10:53.636Z,63.93
2022-10-02T16:12:11.470Z,63.93
2022-10-02T16:13:29.330Z,64.33
2022-10-02T16:14:47.154Z,64.23
2022-10-02T16:16:03.841Z,64.03
2022-10-02T16:17:21.684Z,64.13
2022-10-02T16:18:39.522Z,64.53
2022-10-02T16:19:57.526Z,64.73
2022-10-02T16:21:15.354Z,64.73
2022-10-02T16:22:33.193Z,64.64
2022-10-02T16:23:51.046Z,64.64
2022-10-02T16:25:08.928Z,64.84
2022-10-02T16:26:26.769Z,65.04
2022-10-02T16:27:43.469Z,65.24
2022-10-02T16:29:01.277Z,65.54
2022-10-02T16:30:19.110Z,65.54
2022-10-02T16:31:37.006Z,65.54
2022-10-02T16:32:54.817Z,65.84
2022-10-02T16:34:11.497Z,65.84
2022-10-02T16:35:29.320Z,65.84
2022-10-02T16:36:47.168Z,66.05
2022-10-02T16:38:04.999Z,66.25
2022-10-02T16:39:22.852Z,66.45